Time;durP1;ratioP1;P1;durP2;ratioP2;P2;SDS_P1;SDS_P2;PMS_P1;PMS_P2;Temp;Humidity;BMP_temperature;BMP_pressure;BME280_temperature;BME280_humidity;BME280_pressure;Samples;Min_cycle;Max_cycle;Signal;HPM_P1;HPM_P2
2021/03/03 00:00:06;;;;;;;42.60;24.20;;;;;;;1.47;92.14;101786.25;2046945;29;20086;-57
2021/03/03 00:01:06;;;;;;;44.00;26.10;;;;;;;1.43;91.90;101781.81;2047077;28;20029;-56
2021/03/03 00:02:06;;;;;;;39.67;24.93;;;;;;;1.40;91.83;101786.88;2056038;28;20046;-56
2021/03/03 00:03:07;;;;;;;42.53;25.57;;;;;;;1.35;91.90;101779.00;2055696;28;20039;-57
2021/03/03 00:04:07;;;;;;;41.67;24.03;;;;;;;1.29;92.00;101788.22;2055996;28;20029;-56
2021/03/03 00:05:08;;;;;;;41.73;24.50;;;;;;;1.24;92.04;101785.47;2055634;28;20026;-56
2021/03/03 00:06:09;;;;;;;;;;;;;;;1.26;91.80;101788.09;2055916;28;20494;-56
2021/03/03 00:07:09;;;;;;;46.58;24.30;;;;;;;1.33;92.21;101790.03;2055868;28;19957;-56
2021/03/03 00:08:10;;;;;;;41.95;25.13;;;;;;;1.29;91.85;101785.63;2047326;29;20089;-57
2021/03/03 00:09:10;;;;;;;39.63;24.80;;;;;;;1.26;91.99;101785.53;2039269;29;20067;-56
2021/03/03 00:10:11;;;;;;;40.70;23.63;;;;;;;1.25;92.22;101776.97;2047145;28;20040;-56
2021/03/03 00:11:11;;;;;;;43.03;24.67;;;;;;;1.23;92.27;101782.03;2056214;28;20026;-57
2021/03/03 00:12:12;;;;;;;40.97;26.03;;;;;;;1.31;92.32;101772.00;2055971;28;20039;-56
2021/03/03 00:13:12;;;;;;;43.33;24.67;;;;;;;1.27;92.32;101777.88;2047667;29;20023;-56
2021/03/03 00:14:12;;;;;;;39.37;25.30;;;;;;;1.23;92.30;101773.47;2047751;29;20066;-56
2021/03/03 00:15:13;;;;;;;39.37;24.83;;;;;;;1.31;92.33;101776.28;2056267;28;20450;-56
2021/03/03 00:16:13;;;;;;;40.75;24.63;;;;;;;1.24;92.52;101770.94;2055880;28;20456;-57
2021/03/03 00:17:14;;;;;;;40.90;24.43;;;;;;;1.26;92.53;101780.38;2056407;28;20035;-56
2021/03/03 00:18:14;;;;;;;49.57;25.53;;;;;;;1.22;92.42;101787.13;2047226;29;20073;-56
2021/03/03 00:19:15;;;;;;;43.03;23.70;;;;;;;1.19;92.62;101787.00;2047773;29;20030;-55
2021/03/03 00:20:15;;;;;;;47.23;25.57;;;;;;;1.20;92.38;101783.63;2055482;28;20035;-57
2021/03/03 00:21:15;;;;;;;39.00;23.03;;;;;;;1.23;92.16;101783.72;2056093;28;20495;-57
2021/03/03 00:22:16;;;;;;;41.03;25.93;;;;;;;1.21;92.05;101787.94;2055236;28;20290;-56
2021/03/03 00:23:16;;;;;;;44.33;24.60;;;;;;;1.26;91.93;101778.72;2055739;28;20073;-56
2021/03/03 00:24:16;;;;;;;42.23;24.57;;;;;;;1.32;92.33;101786.59;2054881;28;20077;-56
2021/03/03 00:25:17;;;;;;;42.97;24.50;;;;;;;1.42;92.25;101782.63;2054878;28;20029;-56
2021/03/03 00:26:17;;;;;;;42.83;24.67;;;;;;;1.42;91.99;101779.19;2054190;28;20081;-56
2021/03/03 00:27:17;;;;;;;42.77;24.67;;;;;;;1.36;91.88;101774.72;2054660;28;20038;-56
2021/03/03 00:28:17;;;;;;;40.07;25.00;;;;;;;1.43;91.91;101780.94;2055132;28;20031;-56
2021/03/03 00:29:18;;;;;;;44.10;24.93;;;;;;;1.52;92.04;101779.53;2063427;28;20030;-56
2021/03/03 00:30:19;;;;;;;37.50;23.83;;;;;;;1.43;92.06;101776.66;2063008;28;20126;-56
2021/03/03 00:31:19;;;;;;;42.25;25.17;;;;;;;1.43;91.98;101774.09;2055962;28;20117;-56
2021/03/03 00:32:20;;;;;;;37.93;23.70;;;;;;;1.47;91.83;101778.53;2047332;29;20037;-57
2021/03/03 00:33:20;;;;;;;41.25;24.98;;;;;;;1.46;91.68;101781.94;2039215;29;20475;-56
2021/03/03 00:34:20;;;;;;;38.90;24.33;;;;;;;1.39;91.66;101775.69;2047302;29;20035;-57
2021/03/03 00:35:21;;;;;;;37.63;23.13;;;;;;;1.37;91.79;101786.75;2055504;28;20067;-56
2021/03/03 00:36:22;;;;;;;43.57;24.90;;;;;;;1.35;91.85;101785.81;2047337;28;20019;-55
2021/03/03 00:37:22;;;;;;;41.75;24.50;;;;;;;1.28;91.69;101782.19;2039386;29;20497;-56
2021/03/03 00:38:22;;;;;;;39.10;23.60;;;;;;;1.32;91.83;101785.75;2055807;28;20073;-56
2021/03/03 00:39:23;;;;;;;39.43;23.70;;;;;;;1.29;91.87;101789.06;2055899;28;20033;-56
2021/03/03 00:40:23;;;;;;;45.83;24.73;;;;;;;1.26;91.82;101777.81;2055766;28;20034;-56
2021/03/03 00:41:23;;;;;;;42.53;25.17;;;;;;;1.20;92.05;101779.38;2056131;28;20081;-56
2021/03/03 00:42:24;;;;;;;40.10;24.20;;;;;;;1.23;92.34;101776.03;2055916;28;20101;-56
2021/03/03 00:43:24;;;;;;;38.23;23.47;;;;;;;1.16;92.36;101772.38;2056085;28;20054;-56
2021/03/03 00:44:24;;;;;;;43.10;25.30;;;;;;;1.17;92.43;101774.13;2056096;28;20037;-55
2021/03/03 00:45:25;;;;;;;43.13;24.73;;;;;;;1.14;92.42;101781.72;2055987;28;20479;-56
2021/03/03 00:46:25;;;;;;;40.97;25.27;;;;;;;1.21;92.59;101783.69;2056266;28;20030;-56
2021/03/03 00:47:26;;;;;;;48.20;24.73;;;;;;;1.18;92.61;101786.16;2055903;28;20743;-59
2021/03/03 00:48:26;;;;;;;38.93;23.27;;;;;;;1.21;92.34;101785.38;2055834;28;20277;-59
2021/03/03 00:49:26;;;;;;;39.13;23.40;;;;;;;1.14;92.37;101778.28;2056032;28;20394;-59
2021/03/03 00:50:27;;;;;;;43.57;24.77;;;;;;;1.12;92.33;101782.50;2055218;28;20114;-59
2021/03/03 00:51:27;;;;;;;41.77;24.47;;;;;;;1.09;92.54;101781.56;2055679;28;20478;-59
2021/03/03 00:52:27;;;;;;;41.63;25.30;;;;;;;1.05;92.53;101781.41;2055870;28;20026;-59
2021/03/03 00:53:28;;;;;;;36.33;22.97;;;;;;;1.02;92.91;101783.88;2055896;28;20027;-59
2021/03/03 00:54:28;;;;;;;42.27;25.17;;;;;;;0.97;92.98;101783.72;2055961;28;20081;-59
2021/03/03 00:55:28;;;;;;;45.07;24.70;;;;;;;0.96;92.97;101783.66;2055972;28;20114;-59
2021/03/03 00:56:28;;;;;;;44.77;24.30;;;;;;;0.89;92.92;101791.16;2054644;28;20026;-59
2021/03/03 00:57:29;;;;;;;40.00;24.00;;;;;;;0.84;93.08;101778.97;2055179;28;20034;-59
2021/03/03 00:58:29;;;;;;;41.17;23.47;;;;;;;0.77;93.08;101791.59;2055839;28;20039;-59
2021/03/03 00:59:30;;;;;;;44.00;23.48;;;;;;;0.73;93.20;101797.44;2046860;29;20066;-59
2021/03/03 01:00:30;;;;;;;35.17;23.27;;;;;;;0.71;93.20;101799.06;2046574;29;20066;-59
2021/03/03 01:01:31;;;;;;;37.90;22.25;;;;;;;0.69;93.00;101795.56;2055498;28;20098;-59
2021/03/03 01:02:31;;;;;;;41.90;24.27;;;;;;;0.67;93.18;101793.75;2047554;29;20731;-59
2021/03/03 01:03:31;;;;;;;35.47;22.73;;;;;;;0.70;93.45;101799.00;2047122;29;20037;-59
2021/03/03 01:04:32;;;;;;;39.87;23.97;;;;;;;0.71;93.56;101799.06;2056044;28;20051;-59
2021/03/03 01:05:32;;;;;;;41.43;23.93;;;;;;;0.73;93.51;101794.00;2047237;29;20510;-59
2021/03/03 01:06:32;;;;;;;40.60;23.37;;;;;;;0.71;93.69;101793.06;2046614;29;20050;-59
2021/03/03 01:07:33;;;;;;;40.67;24.43;;;;;;;0.67;93.61;101794.66;2055955;28;20515;-59
2021/03/03 01:08:33;;;;;;;41.33;24.37;;;;;;;0.64;93.57;101785.97;2055785;28;20368;-59
2021/03/03 01:09:34;;;;;;;39.80;22.53;;;;;;;0.63;93.52;101787.66;2055779;28;20083;-59
2021/03/03 01:10:34;;;;;;;45.13;24.07;;;;;;;0.65;93.67;101796.28;2055418;28;20097;-59
2021/03/03 01:11:35;;;;;;;39.92;23.23;;;;;;;0.66;93.63;101790.34;2056008;28;20034;-59
2021/03/03 01:12:35;;;;;;;40.63;23.23;;;;;;;0.66;93.43;101789.44;2055638;28;20050;-59
2021/03/03 01:13:36;;;;;;;35.33;23.70;;;;;;;0.61;93.48;101787.59;2039589;29;20039;-59
2021/03/03 01:14:36;;;;;;;42.35;23.58;;;;;;;0.64;93.48;101785.97;2038533;29;20031;-59
2021/03/03 01:15:37;;;;;;;40.57;23.03;;;;;;;0.63;93.40;101789.34;2055654;28;20041;-59
2021/03/03 01:16:38;;;;;;;41.60;23.20;;;;;;;0.60;93.30;101788.41;2055988;28;20022;-58
2021/03/03 01:17:39;;;;;;;;;;;;;;;0.56;93.20;101783.13;2055636;28;20030;-56
2021/03/03 01:18:40;;;;;;;36.67;21.73;;;;;;;0.54;93.49;101777.91;2056937;28;19918;-58
2021/03/03 01:19:40;;;;;;;41.95;22.23;;;;;;;0.53;93.25;101788.13;2057521;28;20132;-60
2021/03/03 01:20:41;;;;;;;34.97;22.13;;;;;;;0.54;93.36;101779.63;2056045;28;20438;-60
2021/03/03 01:21:41;;;;;;;40.07;23.07;;;;;;;0.56;93.52;101783.13;2056673;28;20422;-60
2021/03/03 01:22:41;;;;;;;36.40;22.13;;;;;;;0.54;93.28;101780.47;2056241;28;20014;-60
2021/03/03 01:23:42;;;;;;;34.63;22.57;;;;;;;0.46;93.25;101782.78;2057520;28;20026;-60
2021/03/03 01:24:42;;;;;;;40.43;22.17;;;;;;;0.43;93.27;101784.38;2048754;29;20648;-60
2021/03/03 01:25:42;;;;;;;38.83;22.73;;;;;;;0.41;93.32;101784.28;2048723;29;20027;-60
2021/03/03 01:26:43;;;;;;;37.60;22.70;;;;;;;0.39;93.25;101780.78;2056705;28;20075;-60
2021/03/03 01:27:43;;;;;;;35.70;22.90;;;;;;;0.38;93.47;101779.06;2057251;28;20038;-60
2021/03/03 01:28:43;;;;;;;35.97;21.43;;;;;;;0.36;93.25;101778.13;2056453;28;20038;-60
2021/03/03 01:29:44;;;;;;;37.43;21.40;;;;;;;0.33;93.37;101778.00;2056923;28;20030;-62
2021/03/03 01:30:44;;;;;;;40.93;21.50;;;;;;;0.30;93.12;101768.50;2056867;28;20066;-62
2021/03/03 01:31:44;;;;;;;37.90;22.93;;;;;;;0.30;93.20;101780.44;2057260;28;20039;-61
2021/03/03 01:32:45;;;;;;;39.53;22.67;;;;;;;0.28;93.20;101771.84;2048084;29;20059;-62
2021/03/03 01:33:45;;;;;;;39.22;22.23;;;;;;;0.28;93.12;101777.84;2048972;29;20496;-58
2021/03/03 01:34:46;;;;;;;34.87;22.23;;;;;;;0.27;93.45;101778.66;2057484;28;20483;-58
2021/03/03 01:35:49;;;;;;;38.33;22.90;;;;;;;0.25;93.40;101777.72;2057337;28;20647;-58
2021/03/03 01:36:49;;;;;;;40.95;23.02;;;;;;;0.30;93.45;101770.19;2057372;28;20023;-58
2021/03/03 01:37:49;;;;;;;42.93;23.23;;;;;;;0.27;93.64;101775.22;2057428;28;20031;-54
2021/03/03 01:38:50;;;;;;;39.53;23.83;;;;;;;0.37;93.71;101773.88;2057011;28;20039;-55
2021/03/03 01:39:50;;;;;;;43.23;24.80;;;;;;;0.45;93.79;101768.22;2056716;28;20050;-55
2021/03/03 01:40:51;;;;;;;41.90;23.27;;;;;;;0.38;93.84;101780.75;2064213;28;20398;-55
2021/03/03 01:41:51;;;;;;;39.65;23.88;;;;;;;0.39;93.73;101774.81;2059172;28;20033;-55
2021/03/03 01:42:53;;;;;;;39.13;23.37;;;;;;;0.39;93.86;101779.94;2050990;28;22092;-55
2021/03/03 01:43:54;;;;;;;42.58;24.75;;;;;;;0.45;93.86;101770.78;2057205;28;20018;-55
2021/03/03 01:44:54;;;;;;;43.40;24.47;;;;;;;0.50;93.79;101765.81;2057400;28;20023;-55
2021/03/03 01:45:54;;;;;;;39.63;24.03;;;;;;;0.55;93.75;101765.97;2057090;28;20435;-55
2021/03/03 01:46:55;;;;;;;45.10;24.80;;;;;;;0.52;93.67;101768.41;2057232;28;20054;-54
2021/03/03 01:47:55;;;;;;;36.90;22.30;;;;;;;0.52;93.76;101771.00;2056865;28;20015;-55
2021/03/03 01:48:55;;;;;;;39.40;23.43;;;;;;;0.50;93.63;101762.34;2056973;28;20038;-55
2021/03/03 01:49:55;;;;;;;39.87;23.13;;;;;;;0.48;93.74;101767.44;2056754;28;20041;-55
2021/03/03 01:51:00;;;;;;;39.17;23.37;;;;;;;0.50;93.56;101768.38;2057143;28;20054;-55
2021/03/03 01:52:02;;;;;;;40.47;23.90;;;;;;;0.54;93.47;101766.78;2046973;29;20031;-54
2021/03/03 01:53:03;;;;;;;39.35;23.17;;;;;;;0.51;93.60;101759.88;2049330;28;20106;-55
2021/03/03 01:54:03;;;;;;;42.83;23.93;;;;;;;0.54;93.72;101761.66;2057327;28;20026;-54
2021/03/03 01:55:04;;;;;;;41.45;24.60;;;;;;;0.52;93.71;101766.75;2055890;28;20110;-55
2021/03/03 01:56:05;;;;;;;42.78;24.23;;;;;;;0.52;93.64;101765.84;2055999;28;20037;-54
2021/03/03 01:57:06;;;;;;;39.33;23.92;;;;;;;0.51;93.70;101765.00;2056681;28;20073;-55
2021/03/03 01:58:06;;;;;;;41.30;24.30;;;;;;;0.53;93.58;101767.59;2056526;28;20027;-55
2021/03/03 01:59:07;;;;;;;40.90;23.50;;;;;;;0.53;93.49;101765.94;2056952;28;20029;-55
2021/03/03 02:00:08;;;;;;;39.97;23.73;;;;;;;0.52;93.46;101773.56;2056324;28;20464;-54
2021/03/03 02:01:08;;;;;;;42.72;23.50;;;;;;;0.51;93.08;101770.13;2056358;28;20054;-54
2021/03/03 02:02:08;;;;;;;36.70;22.37;;;;;;;0.52;93.06;101765.84;2056762;28;20392;-55
2021/03/03 02:03:09;;;;;;;39.00;23.33;;;;;;;0.50;92.97;101770.06;2057050;28;20031;-55
2021/03/03 02:04:09;;;;;;;42.83;23.63;;;;;;;0.48;93.30;101762.31;2054160;28;20549;-54
2021/03/03 02:05:10;;;;;;;40.83;23.77;;;;;;;0.46;93.29;101763.94;2056951;28;20022;-54
2021/03/03 02:06:22;;;;;;;37.03;22.27;;;;;;;0.47;93.53;101765.69;2064112;28;20027;-54
2021/03/03 02:07:30;;;;;;;;;;;;;;;0.58;93.23;101764.38;2055485;28;20117;-54
2021/03/03 02:08:40;;;;;;;35.47;21.48;;;;;;;0.61;93.31;101755.91;2049047;28;19918;-55
2021/03/03 02:09:59;;;;;;;39.58;23.35;;;;;;;0.66;93.31;101750.97;2057057;28;20033;-55
2021/03/03 02:11:19;;;;;;;42.10;23.55;;;;;;;0.63;93.61;101746.59;2057051;28;20027;-55
2021/03/03 02:12:27;;;;;;;43.05;24.48;;;;;;;0.68;93.69;101749.31;2057092;28;20089;-55
2021/03/03 02:13:34;;;;;;;40.78;24.40;;;;;;;0.67;93.46;101747.56;2057156;28;20073;-55
2021/03/03 02:14:37;;;;;;;39.35;24.60;;;;;;;0.65;93.36;101741.50;2056925;28;20479;-57
2021/03/03 02:15:40;;;;;;;40.05;23.73;;;;;;;0.64;93.34;101748.34;2048555;29;20027;-55
2021/03/03 02:16:41;;;;;;;40.50;23.00;;;;;;;0.66;93.31;101750.97;2048203;28;20119;-54
2021/03/03 02:17:43;;;;;;;43.05;24.13;;;;;;;0.65;93.12;101754.34;2056219;28;20023;-55
2021/03/03 02:18:45;;;;;;;40.85;24.15;;;;;;;0.61;93.18;101746.56;2056382;28;20050;-54
2021/03/03 02:19:47;;;;;;;37.50;23.60;;;;;;;0.59;93.12;101755.88;2056036;28;20110;-54
2021/03/03 02:20:57;;;;;;;39.78;24.13;;;;;;;0.60;93.12;101749.03;2056604;28;20033;-55
2021/03/03 02:22:11;;;;;;;43.95;23.60;;;;;;;0.58;93.10;101755.84;2057186;28;20026;-54
2021/03/03 02:23:24;;;;;;;39.00;22.83;;;;;;;0.56;93.10;101758.31;2056880;28;20360;-54
2021/03/03 02:24:27;;;;;;;43.90;23.73;;;;;;;0.56;93.07;101758.31;2057246;28;20034;-55
2021/03/03 02:25:31;;;;;;;38.92;22.90;;;;;;;0.56;93.25;101768.59;2056325;28;20085;-52
2021/03/03 02:26:33;;;;;;;40.40;24.05;;;;;;;0.55;93.25;101766.84;2056516;28;20030;-54
2021/03/03 02:27:34;;;;;;;37.70;23.17;;;;;;;0.56;93.13;101766.03;2056936;28;20026;-53
2021/03/03 02:28:35;;;;;;;42.90;23.17;;;;;;;0.55;93.25;101771.97;2057049;28;20475;-54
2021/03/03 02:29:36;;;;;;;41.20;22.85;;;;;;;0.59;93.34;101768.72;2056355;28;20062;-55
2021/03/03 02:30:41;;;;;;;40.30;24.42;;;;;;;0.60;93.40;101775.59;2056161;28;20030;-55
2021/03/03 02:31:45;;;;;;;39.63;22.85;;;;;;;0.61;93.61;101772.22;2056313;28;20050;-53
2021/03/03 02:32:47;;;;;;;40.53;22.65;;;;;;;0.57;93.71;101765.22;2056830;28;20027;-54
2021/03/03 02:33:47;;;;;;;37.53;23.52;;;;;;;0.57;93.64;101769.47;2056856;28;20475;-54
2021/03/03 02:34:48;;;;;;;37.63;24.35;;;;;;;0.56;93.55;101763.47;2057089;28;20066;-55
2021/03/03 02:35:49;;;;;;;39.67;22.90;;;;;;;0.62;93.61;101762.81;2056161;28;20038;-54
2021/03/03 02:36:51;;;;;;;37.92;23.13;;;;;;;0.61;93.57;101771.31;2055949;28;20122;-55
2021/03/03 02:37:52;;;;;;;41.72;24.23;;;;;;;0.58;93.63;101766.97;2056361;28;20114;-54
2021/03/03 02:38:53;;;;;;;38.80;23.45;;;;;;;0.61;93.68;101768.75;2056854;28;20026;-55
2021/03/03 02:39:54;;;;;;;37.17;23.37;;;;;;;0.59;93.70;101761.00;2056525;28;20080;-54
2021/03/03 02:40:55;;;;;;;40.10;24.63;;;;;;;0.61;93.64;101766.19;2057091;28;20018;-55
2021/03/03 02:41:57;;;;;;;40.72;26.20;;;;;;;0.73;94.04;101758.06;2056860;28;20106;-55
2021/03/03 02:42:59;;;;;;;41.92;24.52;;;;;;;0.69;93.96;101764.75;2056244;28;20027;-54
2021/03/03 02:44:02;;;;;;;44.92;26.70;;;;;;;0.73;94.56;101760.63;2056740;28;20046;-55
2021/03/03 02:45:19;;;;;;;48.40;25.75;;;;;;;0.70;94.59;101756.25;2048197;29;20023;-55
2021/03/03 02:46:20;;;;;;;41.00;24.27;;;;;;;0.66;94.55;101761.22;2050250;28;20031;-54
2021/03/03 02:47:20;;;;;;;47.78;25.65;;;;;;;0.64;94.63;101761.19;2057116;28;20467;-54
2021/03/03 02:48:20;;;;;;;43.47;26.30;;;;;;;0.60;94.53;101757.63;2056761;28;20039;-54
2021/03/03 02:49:22;;;;;;;40.23;24.57;;;;;;;0.58;94.39;101764.38;2057094;28;20514;-55
2021/03/03 02:50:22;;;;;;;;;;;;;;;0.56;94.63;101766.03;2056964;28;20030;-55
2021/03/03 02:51:22;;;;;;;41.83;23.90;;;;;;;0.54;94.61;101761.66;2057001;28;19910;-55
2021/03/03 02:52:23;;;;;;;42.60;24.43;;;;;;;0.55;94.59;101756.56;2056925;28;20026;-55
2021/03/03 02:53:24;;;;;;;40.88;23.77;;;;;;;0.52;94.53;101763.28;2057080;28;20038;-55
2021/03/03 02:54:24;;;;;;;45.03;25.13;;;;;;;0.56;94.62;101755.75;2056745;28;20533;-54
2021/03/03 02:55:27;;;;;;;46.03;26.93;;;;;;;0.68;94.79;101750.22;2056909;28;20038;-55
2021/03/03 02:56:30;;;;;;;40.88;25.73;;;;;;;0.63;95.04;101745.72;2056265;28;20097;-55
2021/03/03 02:57:31;;;;;;;43.63;25.20;;;;;;;0.57;95.42;101743.81;2057060;28;20053;-55
2021/03/03 02:58:31;;;;;;;45.20;26.27;;;;;;;0.59;95.13;101747.28;2056655;28;20027;-55
2021/03/03 02:59:45;;;;;;;45.33;25.93;;;;;;;0.60;95.54;101755.06;2057030;28;20053;-55
2021/03/03 03:00:46;;;;;;;44.58;25.48;;;;;;;0.57;95.62;101754.94;2056812;28;20030;-55
2021/03/03 03:01:48;;;;;;;;;;;;;;;0.55;95.55;101755.72;2057418;28;20487;-55
2021/03/03 03:02:52;;;;;;;48.08;25.50;;;;;;;0.54;95.59;101748.84;2056692;28;19921;-55
2021/03/03 03:03:59;;;;;;;43.00;25.75;;;;;;;0.54;95.68;101751.41;2057053;28;20038;-54
2021/03/03 03:05:03;;;;;;;44.58;25.85;;;;;;;0.53;95.57;101747.09;2056217;28;20038;-53
2021/03/03 03:06:08;;;;;;;42.00;26.40;;;;;;;0.56;95.51;101760.03;2056745;28;20534;-54
2021/03/03 03:07:14;;;;;;;47.08;27.20;;;;;;;0.53;95.30;101757.34;2056722;28;20072;-54
2021/03/03 03:08:17;;;;;;;41.88;24.65;;;;;;;0.54;95.49;101749.69;2056867;28;20057;-55
2021/03/03 03:09:19;;;;;;;44.17;24.95;;;;;;;0.53;95.36;101754.78;2056687;28;20530;-55
2021/03/03 03:10:20;;;;;;;41.88;24.65;;;;;;;0.49;95.09;101751.22;2056367;28;20042;-55
2021/03/03 03:11:24;;;;;;;40.37;23.73;;;;;;;0.45;94.97;101749.38;2056776;28;20050;-55
2021/03/03 03:12:26;;;;;;;39.72;22.90;;;;;;;0.43;94.64;101753.59;2056682;28;20719;-54
2021/03/03 03:13:29;;;;;;;41.55;23.42;;;;;;;0.38;94.56;101753.41;2056263;28;20455;-54
2021/03/03 03:14:30;;;;;;;45.60;23.88;;;;;;;0.42;94.46;101750.13;2056754;28;20026;-55
2021/03/03 03:15:31;;;;;;;40.75;23.33;;;;;;;0.43;94.16;101751.88;2056469;28;20034;-55
2021/03/03 03:16:35;;;;;;;37.72;23.35;;;;;;;0.43;94.13;101753.59;2056675;28;20097;-55
2021/03/03 03:17:37;;;;;;;39.40;23.77;;;;;;;0.45;94.04;101762.19;2056584;28;20022;-54
2021/03/03 03:18:45;;;;;;;39.03;22.63;;;;;;;0.46;94.14;101767.41;2056778;28;20050;-54
2021/03/03 03:19:50;;;;;;;37.35;22.83;;;;;;;0.42;94.10;101759.53;2056241;28;20023;-55
2021/03/03 03:20:53;;;;;;;39.42;22.98;;;;;;;0.38;94.28;101768.81;2056795;28;20118;-54
2021/03/03 03:21:54;;;;;;;36.22;22.98;;;;;;;0.35;94.26;101761.00;2056695;28;20033;-54
2021/03/03 03:22:55;;;;;;;33.42;21.98;;;;;;;0.35;94.03;101758.44;2056405;28;20041;-55
2021/03/03 03:23:59;;;;;;;37.97;24.15;;;;;;;0.31;94.21;101756.56;2056754;28;20037;-57
2021/03/03 03:25:03;;;;;;;42.17;23.67;;;;;;;0.25;94.15;101758.91;2056715;28;20027;-55
2021/03/03 03:26:04;;;;;;;45.03;23.92;;;;;;;0.22;94.29;101757.09;2056700;28;20058;-53
2021/03/03 03:27:06;;;;;;;36.42;21.73;;;;;;;0.20;94.16;101760.41;2056645;28;20022;-55
2021/03/03 03:28:07;;;;;;;37.60;22.73;;;;;;;0.18;94.29;101764.63;2056316;28;20050;-54
2021/03/03 03:29:08;;;;;;;39.33;23.08;;;;;;;0.14;94.41;101764.50;2056569;28;20030;-54
2021/03/03 03:30:10;;;;;;;;;;;;;;;0.11;94.71;101761.81;2056584;28;20424;-54
2021/03/03 03:31:11;;;;;;;38.22;22.13;;;;;;;0.11;94.64;101768.66;2056670;28;20334;-53
2021/03/03 03:32:12;;;;;;;36.30;22.73;;;;;;;0.14;94.46;101766.22;2056404;28;20066;-54
2021/03/03 03:33:13;;;;;;;36.65;22.63;;;;;;;0.13;94.71;101765.31;2056482;28;20057;-54
2021/03/03 03:34:14;;;;;;;43.42;23.05;;;;;;;0.13;94.52;101764.44;2056594;28;20047;-54
2021/03/03 03:35:14;;;;;;;41.38;23.00;;;;;;;0.13;94.58;101767.00;2056646;28;20488;-55
2021/03/03 03:36:14;;;;;;;37.75;22.95;;;;;;;0.11;94.49;101766.06;2056363;28;20023;-55
2021/03/03 03:37:15;;;;;;;38.37;22.97;;;;;;;0.13;94.57;101767.00;2056672;28;20043;-54
2021/03/03 03:38:16;;;;;;;40.90;22.98;;;;;;;0.10;94.34;101762.63;2056383;28;20033;-55
2021/03/03 03:39:17;;;;;;;40.38;24.13;;;;;;;0.09;94.81;101760.91;2056581;28;20377;-54
2021/03/03 03:40:17;;;;;;;41.47;23.77;;;;;;;0.11;94.53;101766.06;2056039;28;20553;-54
2021/03/03 03:41:18;;;;;;;41.47;24.35;;;;;;;0.09;94.52;101768.59;2056081;28;20383;-55
2021/03/03 03:42:20;;;;;;;37.73;22.60;;;;;;;0.13;94.53;101767.00;2047555;29;20519;-54
2021/03/03 03:43:21;;;;;;;39.10;23.27;;;;;;;0.11;94.70;101768.66;2047607;28;20321;-55
2021/03/03 03:44:22;;;;;;;42.72;25.02;;;;;;;0.08;94.84;101766.84;2048218;28;20472;-54
2021/03/03 03:45:23;;;;;;;38.17;23.60;;;;;;;0.09;94.85;101770.25;2056524;28;20031;-55
2021/03/03 03:46:24;;;;;;;41.55;24.27;;;;;;;0.14;94.95;101761.94;2056177;28;20387;-54
2021/03/03 03:47:25;;;;;;;41.78;24.27;;;;;;;0.18;94.94;101759.50;2056647;28;20050;-55
2021/03/03 03:48:26;;;;;;;41.40;24.55;;;;;;;0.26;94.87;101758.09;2056445;28;20034;-54
2021/03/03 03:49:27;;;;;;;;;;;;;;;0.28;94.91;101762.44;2056970;28;20038;-55
2021/03/03 03:50:28;;;;;;;40.38;24.15;;;;;;;0.35;94.70;101755.88;2055359;28;19914;-55
2021/03/03 03:51:28;;;;;;;50.03;28.90;;;;;;;0.43;94.92;101757.00;2055842;28;20089;-54
2021/03/03 03:52:29;;;;;;;46.70;28.05;;;;;;;0.41;95.15;101757.78;2047590;29;20046;-55
2021/03/03 03:53:31;;;;;;;37.37;24.17;;;;;;;0.33;95.23;101749.78;2047892;29;20126;-55
2021/03/03 03:54:31;;;;;;;39.10;23.75;;;;;;;0.30;95.27;101759.94;2056482;28;20023;-55
2021/03/03 03:55:37;;;;;;;41.33;25.33;;;;;;;0.28;95.30;101762.44;2056526;28;20038;-54
2021/03/03 03:56:43;;;;;;;45.97;28.70;;;;;;;0.29;95.35;101759.06;2056263;28;20491;-54
2021/03/03 03:57:50;;;;;;;46.80;28.10;;;;;;;0.27;95.48;101758.13;2056329;28;20026;-54
2021/03/03 03:58:51;;;;;;;43.70;28.05;;;;;;;0.24;95.34;101758.03;2055945;28;20041;-54
2021/03/03 03:59:51;;;;;;;40.67;26.53;;;;;;;0.25;95.29;101761.47;2055639;28;20038;-55
2021/03/03 04:00:52;;;;;;;43.87;28.30;;;;;;;0.24;95.37;101763.16;2055926;28;20018;-55
2021/03/03 04:01:52;;;;;;;43.95;28.67;;;;;;;0.24;95.38;101765.75;2056288;28;20026;-53
2021/03/03 04:02:53;;;;;;;44.90;29.03;;;;;;;0.27;95.59;101758.13;2056170;28;20070;-55
2021/03/03 04:03:53;;;;;;;50.00;28.73;;;;;;;0.26;95.50;101765.78;2056506;28;20045;-54
2021/03/03 04:04:53;;;;;;;45.07;27.27;;;;;;;0.24;95.59;101765.75;2056437;28;20034;-53
2021/03/03 04:05:53;;;;;;;41.93;26.47;;;;;;;0.23;95.63;101769.13;2056337;28;20033;-55
2021/03/03 04:06:54;;;;;;;39.40;25.87;;;;;;;0.25;95.44;101764.88;2056425;28;20458;-55
2021/03/03 04:07:55;;;;;;;47.90;28.70;;;;;;;0.24;95.42;101770.88;2056578;28;20030;-55
2021/03/03 04:08:55;;;;;;;42.03;27.27;;;;;;;0.23;95.52;101763.97;2056220;28;20031;-55
2021/03/03 04:09:55;;;;;;;42.73;26.83;;;;;;;0.22;95.55;101761.34;2055990;28;20042;-55
2021/03/03 04:10:56;;;;;;;46.60;27.23;;;;;;;0.19;95.62;101764.69;2056247;28;20027;-54
2021/03/03 04:11:57;;;;;;;41.25;25.85;;;;;;;0.22;95.26;101772.50;2056325;28;20097;-55
2021/03/03 04:12:58;;;;;;;46.80;26.25;;;;;;;0.20;95.23;101762.97;2055960;28;20026;-55
2021/03/03 04:13:58;;;;;;;40.15;25.30;;;;;;;0.18;95.36;101765.47;2056307;28;20057;-54
2021/03/03 04:14:58;;;;;;;44.50;26.80;;;;;;;0.18;95.37;101762.91;2056182;28;20113;-54
2021/03/03 04:15:58;;;;;;;40.17;24.80;;;;;;;0.15;95.43;101761.13;2055912;28;20033;-53
2021/03/03 04:16:59;;;;;;;41.67;24.83;;;;;;;0.18;95.51;101764.63;2056480;28;20054;-54
2021/03/03 04:17:59;;;;;;;40.10;24.13;;;;;;;0.17;95.64;101758.59;2056200;28;20057;-55
2021/03/03 04:18:59;;;;;;;39.83;24.93;;;;;;;0.14;95.50;101759.38;2056339;28;20041;-54
2021/03/03 04:20:00;;;;;;;37.97;23.77;;;;;;;0.21;95.59;101760.47;2055827;28;20037;-54
2021/03/03 04:21:00;;;;;;;41.57;24.20;;;;;;;0.19;95.61;101761.25;2056480;28;20504;-55
2021/03/03 04:22:00;;;;;;;42.80;24.90;;;;;;;0.15;95.72;101760.22;2056200;28;20023;-55
2021/03/03 04:23:01;;;;;;;42.03;24.90;;;;;;;0.14;95.65;101758.50;2056354;28;20368;-54
2021/03/03 04:24:01;;;;;;;41.33;24.07;;;;;;;0.11;95.82;101758.38;2056237;28;20399;-54
2021/03/03 04:25:03;;;;;;;42.07;24.50;;;;;;;0.12;95.84;101760.13;2056353;28;20053;-55
2021/03/03 04:26:04;;;;;;;38.47;24.23;;;;;;;0.10;95.64;101760.06;2072386;23;20027;-82
2021/03/03 04:27:04;;;;;;;40.60;24.23;;;;;;;0.09;95.84;101766.03;2064507;28;20504;-83
2021/03/03 04:28:05;;;;;;;37.83;23.10;;;;;;;0.10;95.87;101766.88;2064727;28;20014;-82
2021/03/03 04:29:05;;;;;;;42.55;24.30;;;;;;;0.14;95.63;101758.50;2065352;28;20027;-82
2021/03/03 04:30:09;;;;;;;47.63;26.87;;;;;;;0.17;95.87;101762.88;2072268;28;20053;-82
2021/03/03 04:31:09;;;;;;;43.33;27.75;;;;;;;0.14;96.19;101761.06;2072079;28;20038;-82
2021/03/03 04:32:10;;;;;;;41.90;26.03;;;;;;;0.15;96.33;101770.50;2064764;28;20038;-82
2021/03/03 04:33:12;;;;;;;42.30;25.27;;;;;;;0.15;96.46;101765.34;2064801;28;20420;-82
2021/03/03 04:34:12;;;;;;;41.53;26.08;;;;;;;0.16;96.27;101764.53;2065036;28;20018;-82
2021/03/03 04:35:13;;;;;;;43.90;26.73;;;;;;;0.25;96.25;101769.16;2064999;28;20472;-83
2021/03/03 04:36:13;;;;;;;43.70;27.13;;;;;;;0.21;96.22;101765.63;2064759;28;20050;-82
2021/03/03 04:37:13;;;;;;;37.90;24.13;;;;;;;0.19;96.38;101764.69;2065015;28;20034;-82
2021/03/03 04:38:14;;;;;;;47.00;27.20;;;;;;;0.23;96.62;101763.09;2064855;28;20129;-82
2021/03/03 04:39:14;;;;;;;42.63;25.63;;;;;;;0.22;96.67;101771.59;2064927;28;20033;-83
2021/03/03 04:40:15;;;;;;;44.27;27.37;;;;;;;0.24;96.91;101769.97;2064615;28;20030;-83
2021/03/03 04:41:15;;;;;;;52.75;28.30;;;;;;;0.42;97.21;101762.09;2064930;28;20481;-82
2021/03/03 04:42:15;;;;;;;46.27;28.00;;;;;;;0.33;97.40;101765.19;2064586;28;20045;-82
2021/03/03 04:43:16;;;;;;;47.23;28.33;;;;;;;0.36;97.37;101761.84;2064932;28;20026;-83